Time;durP1;ratioP1;P1;durP2;ratioP2;P2;SDS_P1;SDS_P2;PMS_P1;PMS_P2;Temp;Humidity;BMP_temperature;BMP_pressure;BME280_temperature;BME280_humidity;BME280_pressure;Samples;Min_cycle;Max_cycle;Signal;HPM_P1;HPM_P2
2023/03/18 00:00:41;;;;;;;22.38;14.40;;;;;;;14.33;62.62;100848.97;5102593;28;20040;-39
2023/03/18 00:03:07;;;;;;;22.60;13.95;;;;;;;14.33;62.59;100850.72;5098698;27;20150;-39
2023/03/18 00:05:33;;;;;;;25.27;15.63;;;;;;;14.26;62.63;100849.84;5102626;27;20034;-38
2023/03/18 00:08:00;;;;;;;23.30;14.68;;;;;;;13.93;64.37;100848.13;5103199;28;20028;-39
2023/03/18 00:10:26;;;;;;;24.88;15.68;;;;;;;14.01;65.21;100850.75;5099865;28;20024;-39
2023/03/18 00:12:52;;;;;;;25.08;15.05;;;;;;;14.16;64.44;100848.97;5103776;27;20042;-39
2023/03/18 00:15:18;;;;;;;26.38;14.60;;;;;;;14.21;64.24;100843.72;5100776;28;20493;-39
2023/03/18 00:17:45;;;;;;;25.92;15.02;;;;;;;14.21;64.15;100848.94;5103914;28;20374;-41
2023/03/18 00:20:12;;;;;;;22.30;14.07;;;;;;;14.21;64.10;100848.94;5100921;27;20035;-40
2023/03/18 00:22:39;;;;;;;23.02;14.05;;;;;;;14.23;64.03;100847.22;5104157;28;20039;-39
2023/03/18 00:25:07;;;;;;;24.73;15.10;;;;;;;14.26;64.17;100851.59;5101542;28;20032;-38
2023/03/18 00:27:33;;;;;;;23.83;14.50;;;;;;;14.27;64.43;100851.59;5103715;27;20023;-40
2023/03/18 00:29:59;;;;;;;23.48;14.98;;;;;;;14.28;64.46;100847.19;5101716;27;20023;-45
2023/03/18 00:32:26;;;;;;;23.55;14.38;;;;;;;14.34;64.32;100849.81;5098868;27;20047;-38
2023/03/18 00:34:52;;;;;;;25.25;15.00;;;;;;;14.31;64.36;100850.69;5103892;28;20389;-42
2023/03/18 00:37:29;;;;;;;25.10;15.38;;;;;;;14.30;64.43;100853.31;5102153;27;20034;-38
2023/03/18 00:40:06;;;;;;;22.85;14.60;;;;;;;14.38;63.88;100847.22;5105897;27;20110;-39
2023/03/18 00:42:41;;;;;;;24.50;15.27;;;;;;;14.34;64.15;100853.31;5102375;27;20034;-41
2023/03/18 00:45:09;;;;;;;24.67;14.98;;;;;;;14.35;64.16;100849.81;5099630;28;20126;-38
2023/03/18 00:47:35;;;;;;;23.08;15.40;;;;;;;14.30;64.56;100848.06;5107232;28;20405;-39
2023/03/18 00:50:00;;;;;;;22.77;14.35;;;;;;;14.37;64.38;100840.22;5103984;28;20024;-41
2023/03/18 00:52:26;;;;;;;27.33;15.98;;;;;;;14.35;64.72;100839.31;5106035;28;20539;-39
2023/03/18 00:54:51;;;;;;;24.65;14.90;;;;;;;14.42;64.26;100841.09;5103920;27;20394;-40
2023/03/18 00:57:17;;;;;;;25.83;14.73;;;;;;;14.48;64.15;100848.94;5099213;28;20031;-39
2023/03/18 00:59:43;;;;;;;26.73;14.98;;;;;;;14.46;64.19;100847.19;5104373;27;20566;-38
2023/03/18 01:02:08;;;;;;;22.92;15.63;;;;;;;14.46;64.32;100853.31;5099331;28;20042;-39
2023/03/18 01:04:33;;;;;;;24.83;15.68;;;;;;;14.49;64.12;100853.31;5102361;28;20079;-39
2023/03/18 01:07:00;;;;;;;23.05;14.57;;;;;;;14.53;64.24;100838.41;5101459;28;20112;-38
2023/03/18 01:09:25;;;;;;;23.90;15.18;;;;;;;14.54;63.96;100846.28;5099073;28;20048;-38
2023/03/18 01:11:50;;;;;;;23.63;15.40;;;;;;;14.52;64.05;100850.66;5102311;28;20051;-40
2023/03/18 01:14:17;;;;;;;23.23;15.30;;;;;;;14.52;64.05;100845.41;5098467;28;20032;-39
2023/03/18 01:16:43;;;;;;;26.02;16.00;;;;;;;14.50;64.19;100835.81;5102213;28;20128;-40
2023/03/18 01:19:09;;;;;;;21.30;14.77;;;;;;;14.55;64.02;100844.53;5098642;28;20111;-40
2023/03/18 01:21:35;;;;;;;23.58;14.65;;;;;;;14.59;63.87;100841.91;5102261;28;20046;-38
2023/03/18 01:24:00;;;;;;;22.75;15.27;;;;;;;14.52;64.19;100848.03;5099145;28;20039;-41
2023/03/18 01:26:26;;;;;;;22.15;13.77;;;;;;;14.59;63.98;100847.16;5103406;28;20043;-40
2023/03/18 01:28:52;;;;;;;26.10;15.25;;;;;;;14.53;64.11;100852.41;5102010;28;20497;-37
2023/03/18 01:31:17;;;;;;;23.10;15.32;;;;;;;14.65;63.82;100848.00;5100691;28;20031;-40
2023/03/18 01:33:43;;;;;;;22.17;14.18;;;;;;;14.65;63.97;100835.75;5103251;28;20537;-39
2023/03/18 01:36:09;;;;;;;25.33;15.00;;;;;;;14.58;64.20;100847.16;5098766;28;20027;-39
2023/03/18 01:38:35;;;;;;;21.38;13.50;;;;;;;14.64;63.99;100849.75;5102151;28;20040;-39
2023/03/18 01:41:00;;;;;;;23.33;15.27;;;;;;;14.57;64.14;100843.69;5100074;28;20449;-41
2023/03/18 01:43:33;;;;;;;24.42;15.30;;;;;;;14.62;64.09;100854.16;5105956;28;20501;-40
2023/03/18 01:46:00;;;;;;;23.70;14.65;;;;;;;14.63;63.93;100850.66;5104853;28;20093;-39
2023/03/18 01:48:32;;;;;;;22.98;14.85;;;;;;;14.72;63.64;100847.09;5100929;28;20436;-39
2023/03/18 01:51:02;;;;;;;22.55;14.18;;;;;;;14.76;63.43;100847.06;5102208;28;20038;-41
2023/03/18 01:53:34;;;;;;;25.60;14.85;;;;;;;14.75;63.34;100844.47;5097776;28;20034;-39
2023/03/18 01:56:00;;;;;;;22.73;14.70;;;;;;;14.67;63.73;100857.63;5099246;28;20081;-41
2023/03/18 01:58:33;;;;;;;24.15;15.32;;;;;;;14.69;63.52;100857.63;5098030;28;20389;-38
2023/03/18 02:01:24;;;;;;;21.98;15.23;;;;;;;14.70;63.38;100854.97;5100805;28;20036;-40
2023/03/18 02:03:51;;;;;;;25.23;16.00;;;;;;;14.62;63.52;100854.16;5097618;28;20036;-40
2023/03/18 02:06:17;;;;;;;27.45;16.15;;;;;;;14.61;64.26;100857.63;5096249;28;20046;-38
2023/03/18 02:08:43;;;;;;;24.90;16.35;;;;;;;14.57;64.08;100851.53;5102093;28;20110;-43
2023/03/18 02:11:09;;;;;;;28.75;15.80;;;;;;;14.68;63.35;100854.13;5098077;28;20162;-38
2023/03/18 02:13:38;;;;;;;23.63;14.98;;;;;;;14.71;63.30;100850.59;5101329;28;20039;-41
2023/03/18 02:16:12;;;;;;;24.90;15.10;;;;;;;14.72;63.36;100857.59;5098721;28;20035;-41
2023/03/18 02:18:42;;;;;;;25.85;15.65;;;;;;;14.67;63.62;100855.00;5103155;28;20032;-38
2023/03/18 02:21:27;;;;;;;23.20;15.85;;;;;;;14.63;63.64;100861.16;5100794;27;20028;-39
2023/03/18 02:24:10;;;;;;;26.58;15.85;;;;;;;14.63;63.83;100868.13;5104186;27;20110;-39
2023/03/18 02:26:51;;;;;;;23.15;15.25;;;;;;;14.71;63.60;100850.59;5094196;28;20040;-39
2023/03/18 02:29:20;;;;;;;23.60;14.98;;;;;;;14.74;63.40;100851.47;5100597;28;20035;-39
2023/03/18 02:31:46;;;;;;;26.17;15.57;;;;;;;14.71;63.32;100842.72;5103959;28;20031;-41
2023/03/18 02:34:13;;;;;;;23.23;15.52;;;;;;;14.68;63.50;100856.75;5100352;28;20393;-39
2023/03/18 02:36:38;;;;;;;27.60;17.00;;;;;;;14.66;63.46;100852.38;5104598;28;20092;-39
2023/03/18 02:39:04;;;;;;;25.83;15.75;;;;;;;14.73;63.42;100856.72;5100311;28;20028;-39
2023/03/18 02:41:33;;;;;;;25.95;17.23;;;;;;;14.58;63.97;100857.63;5104855;28;20028;-41
2023/03/18 02:43:59;;;;;;;28.77;16.60;;;;;;;14.68;63.72;100858.50;5104395;28;20509;-40
2023/03/18 02:46:40;;;;;;;32.40;16.92;;;;;;;14.78;63.27;100852.31;5099704;28;20123;-39
2023/03/18 02:49:07;;;;;;;27.77;17.50;;;;;;;14.71;63.44;100858.47;5099974;28;20035;-37
2023/03/18 02:51:34;;;;;;;27.50;17.38;;;;;;;14.66;63.60;100863.75;5103562;28;20560;-41
2023/03/18 02:54:04;;;;;;;24.73;16.67;;;;;;;14.75;63.32;100863.72;5101297;28;20038;-46
2023/03/18 02:56:30;;;;;;;30.15;18.02;;;;;;;14.78;63.11;100860.19;5104035;28;20549;-39
2023/03/18 02:58:56;;;;;;;29.20;17.27;;;;;;;14.80;63.00;100863.69;5105006;28;20119;-39
2023/03/18 03:01:22;;;;;;;27.05;17.60;;;;;;;14.78;63.02;100857.56;5103261;28;20028;-39
2023/03/18 03:03:48;;;;;;;28.50;17.73;;;;;;;14.57;63.77;100863.78;5105672;28;20073;-39
2023/03/18 03:06:14;;;;;;;25.45;17.13;;;;;;;14.76;63.29;100869.84;5101601;28;20031;-40
2023/03/18 03:08:40;;;;;;;27.95;16.70;;;;;;;14.66;63.79;100866.38;5103630;28;20063;-40
2023/03/18 03:11:07;;;;;;;25.17;16.38;;;;;;;14.76;63.50;100872.47;5082271;28;20401;-40
2023/03/18 03:13:33;;;;;;;27.10;16.45;;;;;;;14.83;63.21;100867.16;5104041;28;20028;-39
2023/03/18 03:15:58;;;;;;;26.98;16.98;;;;;;;14.85;63.20;100868.03;5104105;28;20032;-38
2023/03/18 03:18:25;;;;;;;26.30;16.95;;;;;;;14.70;63.70;100875.97;5100760;28;20039;-40
2023/03/18 03:20:51;;;;;;;28.33;16.42;;;;;;;14.81;63.31;100868.06;5086590;28;20071;-39
2023/03/18 03:23:17;;;;;;;23.83;15.85;;;;;;;14.86;63.31;100871.53;5083083;28;20050;-39
2023/03/18 03:25:45;;;;;;;25.42;16.40;;;;;;;14.77;63.66;100874.19;5105300;28;20426;-39
2023/03/18 03:28:12;;;;;;;26.90;15.73;;;;;;;14.87;63.40;100874.19;5100658;28;20401;-39
2023/03/18 03:30:38;;;;;;;26.52;16.17;;;;;;;14.63;64.05;100882.13;5101893;28;20043;-42
2023/03/18 03:33:04;;;;;;;25.63;15.35;;;;;;;14.86;63.62;100880.28;5099212;28;20087;-40
2023/03/18 03:35:30;;;;;;;28.85;15.77;;;;;;;14.93;63.45;100874.16;5102761;28;20027;-40
2023/03/18 03:37:55;;;;;;;24.35;15.98;;;;;;;14.92;63.34;100880.28;5103643;28;20515;-39
2023/03/18 03:40:21;;;;;;;23.27;14.43;;;;;;;14.98;63.42;100884.63;5098846;28;20039;-39
2023/03/18 03:42:47;;;;;;;24.65;15.27;;;;;;;14.92;64.02;100895.16;5102327;28;20028;-39
2023/03/18 03:45:14;;;;;;;26.50;15.20;;;;;;;14.94;63.88;100899.50;5099409;28;20075;-41
2023/03/18 03:47:40;;;;;;;22.40;14.45;;;;;;;14.96;63.90;100894.25;5102454;28;20036;-42
2023/03/18 03:50:06;;;;;;;24.08;15.40;;;;;;;14.64;66.00;100907.47;5098857;28;20028;-39
2023/03/18 03:52:31;;;;;;;24.40;15.63;;;;;;;14.54;66.95;100896.13;5102150;28;20047;-39
2023/03/18 03:54:59;;;;;;;25.42;16.13;;;;;;;14.71;66.70;100897.84;5102263;28;20080;-40
2023/03/18 03:57:25;;;;;;;23.85;15.80;;;;;;;14.43;67.94;100904.91;5099411;28;20497;-38
2023/03/18 03:59:51;;;;;;;24.40;16.05;;;;;;;14.45;68.33;100906.66;5103027;28;20106;-38
2023/03/18 04:02:17;;;;;;;27.05;15.90;;;;;;;14.45;68.70;100900.53;5098772;28;20119;-38
2023/03/18 04:04:44;;;;;;;27.20;15.82;;;;;;;14.34;69.25;100904.88;5084234;28;20160;-40
2023/03/18 04:07:10;;;;;;;23.77;15.18;;;;;;;14.55;68.35;100897.88;5099167;28;20039;-40
2023/03/18 04:09:36;;;;;;;25.48;16.15;;;;;;;14.23;69.54;100891.78;5103445;28;20118;-40
2023/03/18 04:12:02;;;;;;;26.63;16.27;;;;;;;14.23;69.91;100902.28;5082331;28;20073;-39
2023/03/18 04:14:28;;;;;;;25.63;16.20;;;;;;;14.18;70.27;100904.91;5103328;28;20023;-40
2023/03/18 04:16:56;;;;;;;22.80;15.68;;;;;;;14.22;70.29;100905.78;5103020;28;20035;-38
2023/03/18 04:19:22;;;;;;;25.55;16.80;;;;;;;14.27;70.17;100905.78;5099868;28;20085;-40
2023/03/18 04:21:48;;;;;;;24.08;15.95;;;;;;;14.35;69.67;100906.63;5103760;28;20035;-38
2023/03/18 04:24:14;;;;;;;24.05;16.10;;;;;;;14.43;69.46;100915.41;5098612;28;20042;-40
2023/03/18 04:26:39;;;;;;;21.88;15.73;;;;;;;14.48;69.15;100922.38;5103749;28;20067;-40
2023/03/18 04:29:05;;;;;;;23.80;16.02;;;;;;;14.37;69.62;100932.03;5101229;28;20092;-37
2023/03/18 04:31:31;;;;;;;24.77;16.55;;;;;;;14.35;69.90;100935.47;5104858;28;20035;-43
2023/03/18 04:33:58;;;;;;;23.88;16.55;;;;;;;14.18;70.48;100935.50;5103962;28;20085;-38
2023/03/18 04:36:24;;;;;;;26.67;17.15;;;;;;;14.10;70.75;100934.63;5101460;28;20058;-40
2023/03/18 04:38:50;;;;;;;25.38;17.08;;;;;;;14.10;70.99;100929.38;5105079;28;20043;-40
2023/03/18 04:41:16;;;;;;;27.88;16.70;;;;;;;14.29;70.25;100944.22;5100856;28;20027;-41
2023/03/18 04:43:43;;;;;;;24.35;16.40;;;;;;;14.23;70.20;100942.47;5105117;28;20051;-40
2023/03/18 04:46:10;;;;;;;24.20;16.08;;;;;;;14.35;69.72;100948.59;5100455;28;20035;-39
2023/03/18 04:48:36;;;;;;;24.67;16.20;;;;;;;14.45;69.70;100947.75;5102243;28;20099;-39
2023/03/18 04:51:02;;;;;;;23.77;16.15;;;;;;;14.44;69.41;100952.13;5096435;28;20040;-41
2023/03/18 04:53:27;;;;;;;20.77;15.02;;;;;;;14.33;69.51;100950.38;5102384;28;20054;-38
2023/03/18 04:55:53;;;;;;;24.73;15.95;;;;;;;14.13;70.38;100947.75;5102511;28;20110;-39
2023/03/18 04:58:18;;;;;;;21.83;15.00;;;;;;;14.31;69.92;100952.97;5083011;28;20024;-39
2023/03/18 05:00:44;;;;;;;21.50;15.18;;;;;;;14.45;69.14;100953.88;5105004;28;20035;-40
2023/03/18 05:03:10;;;;;;;22.55;15.52;;;;;;;14.53;69.05;100965.22;5100843;28;20066;-40
2023/03/18 05:05:35;;;;;;;23.02;14.65;;;;;;;14.39;69.31;100963.50;5104975;28;20031;-38
2023/03/18 05:08:01;;;;;;;21.85;14.63;;;;;;;14.44;69.39;100961.75;5102051;28;20036;-39
2023/03/18 05:10:26;;;;;;;24.15;14.75;;;;;;;14.45;69.24;100963.50;5106234;28;20027;-39
2023/03/18 05:12:52;;;;;;;23.23;15.10;;;;;;;14.45;68.88;100969.63;5105345;28;20056;-39
2023/03/18 05:15:18;;;;;;;26.98;15.38;;;;;;;14.34;69.27;100959.94;5101918;28;20031;-40
2023/03/18 05:17:44;;;;;;;23.08;15.15;;;;;;;14.26;69.06;100953.84;5086994;28;20031;-38
2023/03/18 05:20:10;;;;;;;20.23;13.95;;;;;;;14.26;68.58;100961.72;5099237;28;20054;-39
2023/03/18 05:22:36;;;;;;;20.27;14.40;;;;;;;14.29;68.71;100952.09;5102938;28;20043;-39
2023/03/18 05:25:01;;;;;;;20.48;14.60;;;;;;;14.27;69.00;100951.25;5101499;28;20085;-43
2023/03/18 05:27:28;;;;;;;22.85;15.15;;;;;;;14.16;69.23;100947.72;5106227;28;20036;-38
2023/03/18 05:29:54;;;;;;;24.45;14.88;;;;;;;14.18;69.63;100946.88;5102369;28;20039;-40
2023/03/18 05:32:20;;;;;;;21.85;15.00;;;;;;;14.25;69.37;100945.13;5081526;28;20050;-42
2023/03/18 05:34:45;;;;;;;23.05;15.10;;;;;;;14.22;69.57;100945.09;5102327;28;20031;-39
2023/03/18 05:37:13;;;;;;;21.58;14.27;;;;;;;14.32;69.25;100943.38;5079762;28;20035;-40
2023/03/18 05:39:39;;;;;;;59.53;40.75;;;;;;;14.25;69.44;100946.88;5101206;28;20027;-40
2023/03/18 05:42:05;;;;;;;27.27;17.73;;;;;;;14.29;69.56;100949.47;5098144;28;20520;-41
2023/03/18 05:44:31;;;;;;;22.75;15.73;;;;;;;14.35;69.28;100951.22;5106434;28;20035;-41
2023/03/18 05:46:57;;;;;;;24.25;16.00;;;;;;;14.33;69.57;100946.00;5089476;28;20039;-41
2023/03/18 05:49:23;;;;;;;23.70;15.57;;;;;;;14.36;69.35;100953.84;5099204;28;20410;-43
2023/03/18 05:51:49;;;;;;;24.92;15.77;;;;;;;14.32;69.65;100952.13;5083270;28;20039;-40
2023/03/18 05:54:16;;;;;;;26.58;16.23;;;;;;;14.37;69.45;100953.00;5102052;28;20542;-40
2023/03/18 05:56:44;;;;;;;22.60;16.00;;;;;;;14.25;69.61;100947.75;5107071;28;20397;-39
2023/03/18 05:59:10;;;;;;;21.90;15.25;;;;;;;14.23;68.90;100947.72;5102772;28;20570;-42
2023/03/18 06:01:36;;;;;;;27.13;16.70;;;;;;;14.11;68.82;100944.22;5105532;28;20072;-39
2023/03/18 06:04:02;;;;;;;22.63;15.63;;;;;;;14.06;68.60;100946.00;5101057;28;20489;-39
2023/03/18 06:06:27;;;;;;;22.02;15.10;;;;;;;14.02;68.54;100958.22;5105766;28;20030;-40
2023/03/18 06:08:55;;;;;;;26.83;15.77;;;;;;;13.91;68.93;100967.81;5107127;28;20035;-40
2023/03/18 06:11:20;;;;;;;23.27;14.90;;;;;;;13.90;68.81;100973.94;5102362;28;20031;-39
2023/03/18 06:13:46;;;;;;;22.58;15.38;;;;;;;13.84;68.98;100971.31;5105855;28;20039;-39
2023/03/18 06:16:11;;;;;;;22.05;14.65;;;;;;;13.79;69.14;100966.03;5103359;28;20029;-39
2023/03/18 06:18:37;;;;;;;24.27;15.05;;;;;;;13.77;69.44;100977.41;5088240;28;20046;-40
2023/03/18 06:21:03;;;;;;;26.98;16.20;;;;;;;13.75;69.58;100971.28;5103496;28;20346;-39
2023/03/18 06:23:29;;;;;;;23.13;15.20;;;;;;;13.76;70.11;100978.28;5106875;28;20122;-39
2023/03/18 06:25:54;;;;;;;22.25;15.45;;;;;;;13.80;70.29;100980.91;5106859;28;20028;-42
2023/03/18 06:28:19;;;;;;;21.98;14.82;;;;;;;13.91;70.48;100995.75;5102615;28;20167;-40
2023/03/18 06:30:45;;;;;;;24.00;14.93;;;;;;;14.10;71.29;101002.78;5108545;28;20111;-39
2023/03/18 06:33:11;;;;;;;25.17;15.50;;;;;;;14.40;71.99;101010.69;5104564;28;20119;-42
2023/03/18 06:35:36;;;;;;;24.17;14.40;;;;;;;15.11;70.76;101017.59;5108911;28;20104;-40
2023/03/18 06:38:01;;;;;;;20.10;13.15;;;;;;;15.79;69.32;101011.22;5105225;28;20086;-40
2023/03/18 06:40:27;;;;;;;19.77;12.90;;;;;;;16.40;66.46;101005.53;5108749;28;20028;-39
2023/03/18 06:42:53;;;;;;;20.05;12.77;;;;;;;16.80;63.09;101011.31;5108169;28;20032;-39
2023/03/18 06:45:20;;;;;;;19.48;12.88;;;;;;;17.06;60.68;101006.66;5105200;28;20116;-39
2023/03/18 06:47:45;;;;;;;19.40;13.10;;;;;;;17.28;59.87;101009.91;5108198;28;20085;-42
2023/03/18 06:50:12;;;;;;;19.73;13.25;;;;;;;17.46;59.43;101009.69;5103696;28;20027;-40
2023/03/18 06:52:38;;;;;;;18.88;13.48;;;;;;;17.68;58.32;101011.22;5105675;28;20085;-42
2023/03/18 06:55:05;;;;;;;23.35;14.38;;;;;;;17.57;57.83;101017.44;5102592;28;20569;-42
2023/03/18 06:57:31;;;;;;;21.15;13.98;;;;;;;17.07;58.98;101021.59;5106370;28;20040;-40
2023/03/18 06:59:57;;;;;;;20.88;15.10;;;;;;;16.77;59.99;101012.22;5107417;28;20503;-40
2023/03/18 07:02:23;;;;;;;21.65;14.57;;;;;;;16.78;61.59;101015.72;5102843;28;20114;-40
2023/03/18 07:04:49;;;;;;;23.08;14.32;;;;;;;16.87;61.17;101019.16;5105901;28;20036;-40
2023/03/18 07:07:15;;;;;;;21.83;14.32;;;;;;;16.98;60.34;101016.41;5102294;28;20131;-41
2023/03/18 07:09:42;;;;;;;26.30;15.27;;;;;;;17.20;60.33;101023.16;5106160;28;20584;-43
2023/03/18 07:12:08;;;;;;;21.00;14.52;;;;;;;17.24;59.01;101024.91;5103151;28;20028;-40
2023/03/18 07:14:34;;;;;;;21.58;14.98;;;;;;;17.23;59.65;101025.78;5108076;28;20114;-39
2023/03/18 07:16:59;;;;;;;23.20;14.93;;;;;;;17.69;59.49;101030.50;5106681;28;20055;-39
2023/03/18 07:19:25;;;;;;;20.10;13.55;;;;;;;17.95;58.68;101025.75;5100723;28;20051;-40
2023/03/18 07:21:50;;;;;;;23.80;14.60;;;;;;;18.16;57.06;101027.22;5105275;28;20524;-42
2023/03/18 07:24:16;;;;;;;21.85;14.25;;;;;;;18.31;56.84;101026.09;5102131;28;20028;-40
2023/03/18 07:26:42;;;;;;;18.08;13.80;;;;;;;18.39;56.34;101029.47;5107044;28;20080;-40
2023/03/18 07:29:08;;;;;;;22.35;13.82;;;;;;;18.75;55.26;101034.19;5094140;28;20032;-46
2023/03/18 07:31:33;;;;;;;19.38;13.05;;;;;;;19.11;54.89;101027.34;5107025;28;20027;-40
2023/03/18 07:33:58;;;;;;;20.77;14.32;;;;;;;18.94;53.55;101032.06;5109065;27;20061;-41
2023/03/18 07:36:24;;;;;;;19.95;13.80;;;;;;;18.44;55.90;101017.94;5104268;27;20490;-39
2023/03/18 07:38:49;;;;;;;21.17;14.35;;;;;;;17.95;56.79;101024.88;5102624;28;20122;-42
2023/03/18 07:41:15;;;;;;;23.48;15.60;;;;;;;17.43;59.38;101026.44;5099758;27;20489;-40
2023/03/18 07:43:42;;;;;;;25.05;16.42;;;;;;;16.85;60.67;101030.56;5102817;28;20037;-40
2023/03/18 07:46:07;;;;;;;25.05;16.90;;;;;;;16.67;61.87;101025.47;5100056;27;20035;-40
2023/03/18 07:48:33;;;;;;;27.33;17.08;;;;;;;16.60;62.75;101019.41;5101789;28;20023;-42
2023/03/18 07:51:00;;;;;;;25.98;17.15;;;;;;;16.55;62.87;101019.41;5101726;28;20034;-40
2023/03/18 07:53:26;;;;;;;24.13;16.10;;;;;;;16.69;63.20;101028.97;5099574;28;20027;-39
2023/03/18 07:55:52;;;;;;;25.77;16.60;;;;;;;16.86;63.53;101038.47;5103094;28;20035;-40
2023/03/18 07:58:17;;;;;;;22.65;15.45;;;;;;;17.23;62.56;101041.59;5100031;27;20031;-40
2023/03/18 08:00:43;;;;;;;21.95;15.02;;;;;;;17.52;60.37;101037.72;5103440;27;20039;-40
2023/03/18 08:03:11;;;;;;;21.70;15.18;;;;;;;17.22;60.46;101039.84;5099555;27;20118;-41
2023/03/18 08:05:36;;;;;;;21.90;15.07;;;;;;;17.33;60.97;101043.22;5103223;27;20520;-42
2023/03/18 08:08:03;;;;;;;22.90;14.73;;;;;;;17.24;60.19;101038.06;5099222;27;20131;-40
2023/03/18 08:10:29;;;;;;;25.75;15.60;;;;;;;17.00;61.08;101041.84;5103641;28;20484;-41
2023/03/18 08:12:56;;;;;;;24.83;15.93;;;;;;;16.53;61.78;101041.34;5102798;27;20056;-38
2023/03/18 08:15:21;;;;;;;25.75;15.63;;;;;;;16.91;61.54;101039.28;5098909;28;20421;-40
2023/03/18 08:17:47;;;;;;;25.00;16.00;;;;;;;16.94;61.08;101039.28;5102068;27;20043;-40
2023/03/18 08:20:14;;;;;;;23.48;15.65;;;;;;;16.73;61.73;101028.06;5098732;27;20161;-38
2023/03/18 08:22:39;;;;;;;24.48;15.68;;;;;;;16.72;62.18;101027.19;5104489;28;20036;-39
2023/03/18 08:25:05;;;;;;;23.25;14.95;;;;;;;16.77;62.08;101035.06;5103764;28;20042;-40
2023/03/18 08:27:30;;;;;;;22.58;15.27;;;;;;;16.51;62.11;101030.88;5103590;28;20027;-40
2023/03/18 08:29:56;;;;;;;23.23;14.93;;;;;;;16.63;62.16;101038.69;5104806;28;20031;-40
2023/03/18 08:32:21;;;;;;;22.52;15.75;;;;;;;16.74;62.41;101029.81;5098450;28;20035;-37
2023/03/18 08:34:47;;;;;;;24.80;15.60;;;;;;;16.79;61.90;101047.31;5102625;28;20141;-39
2023/03/18 08:37:13;;;;;;;26.13;16.00;;;;;;;15.60;65.74;101055.13;5098476;28;20035;-40
2023/03/18 08:39:38;;;;;;;25.05;15.48;;;;;;;16.19;64.42;101052.16;5102714;28;20043;-41
2023/03/18 08:42:04;;;;;;;24.38;14.90;;;;;;;16.67;63.16;101049.19;5098387;27;20032;-45
2023/03/18 08:44:30;;;;;;;24.40;16.65;;;;;;;16.50;62.79;101060.69;5101684;27;20024;-47
2023/03/18 08:46:56;;;;;;;24.27;15.70;;;;;;;16.55;62.95;101074.69;5102947;28;20124;-41
2023/03/18 08:49:23;;;;;;;25.27;16.05;;;;;;;16.93;61.95;101063.00;5093512;28;20038;-41
2023/03/18 08:51:49;;;;;;;22.13;15.07;;;;;;;17.21;61.19;101077.63;5099394;28;20038;-43
2023/03/18 08:54:15;;;;;;;24.95;15.50;;;;;;;17.19;60.86;101081.16;5097416;28;20035;-40
2023/03/18 08:56:41;;;;;;;25.00;16.08;;;;;;;17.27;60.94;101088.09;5102378;28;20401;-43
2023/03/18 08:59:07;;;;;;;22.55;15.00;;;;;;;17.62;60.24;101071.06;5098107;28;20370;-41
2023/03/18 09:01:32;;;;;;;23.60;15.75;;;;;;;17.62;60.22;101078.97;5102669;28;20091;-40
2023/03/18 09:03:58;;;;;;;25.73;16.42;;;;;;;17.40;59.83;101087.06;5101692;28;20028;-41
2023/03/18 09:06:23;;;;;;;24.58;17.02;;;;;;;17.36;59.78;101082.72;5098738;28;20061;-40
2023/03/18 09:08:49;;;;;;;28.10;17.52;;;;;;;17.72;59.60;101088.50;5101737;28;20043;-41
2023/03/18 09:11:15;;;;;;;26.73;18.20;;;;;;;17.64;59.54;101096.50;5098552;27;20393;-40
2023/03/18 09:13:40;;;;;;;29.55;19.52;;;;;;;17.42;60.24;101103.75;5104963;28;20070;-42
2023/03/18 09:16:06;;;;;;;33.22;21.27;;;;;;;17.52;59.78;101093.97;5101684;28;20031;-43
2023/03/18 09:18:31;;;;;;;35.83;22.60;;;;;;;17.70;58.45;101099.03;5105593;28;20036;-42
2023/03/18 09:20:57;;;;;;;33.00;20.63;;;;;;;18.20;57.69;101097.50;5105066;28;20046;-42
2023/03/18 09:23:22;;;;;;;34.60;20.65;;;;;;;18.12;57.11;101096.72;5100465;28;20546;-41
2023/03/18 09:25:49;;;;;;;32.65;21.17;;;;;;;18.07;57.24;101086.25;5104380;28;20574;-39
2023/03/18 09:28:15;;;;;;;31.58;20.50;;;;;;;17.94;57.48;101081.16;5102989;28;20031;-41
2023/03/18 09:30:41;;;;;;;34.92;22.75;;;;;;;17.96;57.59;101085.53;5107920;27;20144;-43
2023/03/18 09:33:08;;;;;;;31.80;21.55;;;;;;;18.11;57.03;101080.03;5103455;28;20158;-40
2023/03/18 09:35:33;;;;;;;36.67;23.90;;;;;;;17.94;57.34;101070.59;5106824;27;20039;-43
2023/03/18 09:37:59;;;;;;;32.38;22.33;;;;;;;17.97;57.77;101079.38;5109004;27;20027;-46
2023/03/18 09:40:30;;;;;;;29.17;20.50;;;;;;;18.26;57.12;101081.59;5103788;27;20028;-41
2023/03/18 09:43:08;;;;;;;31.00;19.98;;;;;;;18.21;56.61;101086.94;5107847;27;20020;-43
2023/03/18 09:46:11;;;;;;;25.95;18.52;;;;;;;18.49;56.37;101089.16;5104973;27;20028;-40
2023/03/18 09:49:01;;;;;;;28.10;18.85;;;;;;;16.90;59.37;101091.97;5104859;27;20046;-39
2023/03/18 09:51:52;;;;;;;27.88;18.58;;;;;;;17.49;58.42;101087.88;5104776;27;20040;-40
2023/03/18 09:54:29;;;;;;;28.60;19.55;;;;;;;17.12;59.48;101087.38;5100663;28;20044;-39
2023/03/18 09:56:55;;;;;;;27.45;18.98;;;;;;;17.65;58.59;101086.81;5105939;28;20027;-43
2023/03/18 09:59:28;;;;;;;28.92;18.08;;;;;;;17.60;58.14;101092.16;5099653;28;20088;-46
2023/03/18 10:01:55;;;;;;;26.67;18.17;;;;;;;17.27;58.76;101082.81;5105503;27;20046;-40
2023/03/18 10:04:23;;;;;;;29.92;20.17;;;;;;;17.44;58.94;101087.94;5101686;27;20048;-42
2023/03/18 10:06:53;;;;;;;28.17;18.83;;;;;;;17.97;58.09;101089.94;5105611;27;20053;-40
2023/03/18 10:09:43;;;;;;;29.20;20.13;;;;;;;17.22;58.94;101092.53;5101416;27;20123;-42
2023/03/18 10:12:30;;;;;;;29.35;19.13;;;;;;;17.59;59.30;101090.38;5101121;27;20091;-40
2023/03/18 10:15:03;;;;;;;28.25;19.38;;;;;;;18.20;57.24;101090.47;5105084;28;20118;-39
2023/03/18 10:17:34;;;;;;;30.17;19.80;;;;;;;18.65;56.15;101077.50;5102362;27;20042;-44
2023/03/18 10:20:07;;;;;;;26.45;18.42;;;;;;;18.68;55.97;101090.63;5106158;28;20062;-41
2023/03/18 10:23:02;;;;;;;29.45;18.58;;;;;;;19.02;54.90;101096.22;5102985;27;20649;-40
2023/03/18 10:25:35;;;;;;;28.52;19.05;;;;;;;18.64;55.65;101091.59;5098337;27;20039;-40
2023/03/18 10:28:39;;;;;;;26.35;18.33;;;;;;;18.79;54.63;101093.97;5110681;27;20455;-42
2023/03/18 10:31:30;;;;;;;26.58;17.27;;;;;;;18.98;54.61;101097.16;5096133;28;20051;-41
2023/03/18 10:34:15;;;;;;;25.30;16.88;;;;;;;18.58;55.73;101089.94;5105183;28;20031;-40
2023/03/18 10:36:54;;;;;;;23.73;15.70;;;;;;;18.97;54.79;101093.66;5104214;28;20149;-40
2023/03/18 10:39:25;;;;;;;23.27;15.27;;;;;;;18.90;54.14;101091.16;5105467;27;20031;-40
2023/03/18 10:41:53;;;;;;;22.48;14.98;;;;;;;19.03;54.24;101090.91;5106181;27;20032;-39
2023/03/18 10:44:32;;;;;;;24.10;15.07;;;;;;;18.88;54.59;101099.09;5100900;28;20208;-40
2023/03/18 10:47:05;;;;;;;23.75;14.20;;;;;;;19.47;53.80;101112.16;5104971;28;20393;-41
2023/03/18 10:49:35;;;;;;;19.33;13.27;;;;;;;19.71;52.27;101104.59;5100783;28;20035;-47
2023/03/18 10:52:12;;;;;;;19.85;13.18;;;;;;;18.98;53.79;101100.69;5103303;28;20035;-42
2023/03/18 10:54:44;;;;;;;21.73;12.30;;;;;;;19.48;52.46;101106.84;5101225;27;20039;-37
2023/03/18 10:57:13;;;;;;;16.73;11.05;;;;;;;19.41;52.49;101110.47;5102630;27;20059;-41
2023/03/18 10:59:39;;;;;;;18.02;11.35;;;;;;;19.03;53.44;101104.09;5106983;27;20031;-39
2023/03/18 11:02:18;;;;;;;17.30;11.15;;;;;;;19.36;52.59;101110.56;5107729;27;20067;-40
2023/03/18 11:05:17;;;;;;;17.55;11.85;;;;;;;19.31;52.58;101116.84;5103576;27;20406;-40
2023/03/18 11:07:59;;;;;;;18.23;11.77;;;;;;;18.90;53.58;101107.88;5092933;27;20042;-40
2023/03/18 11:10:29;;;;;;;19.88;12.43;;;;;;;18.75;53.64;101116.06;5098433;28;20071;-40
2023/03/18 11:13:01;;;;;;;24.13;12.90;;;;;;;18.74;53.85;101116.94;5102586;27;20078;-39